Time;durP1;ratioP1;P1;durP2;ratioP2;P2;SDS_P1;SDS_P2;PMS_P1;PMS_P2;Temp;Humidity;BMP_temperature;BMP_pressure;BME280_temperature;BME280_humidity;BME280_pressure;Samples;Min_cycle;Max_cycle;Signal;HPM_P1;HPM_P2
2023/10/30 00:02:20;;;;;;;8.88;3.03;;;8.80;99.90;;;;;;4920906;29;20435;-80
2023/10/30 00:04:46;;;;;;;7.55;2.60;;;8.80;99.90;;;;;;4920891;29;20084;-80
2023/10/30 00:07:11;;;;;;;11.95;3.55;;;8.80;99.90;;;;;;4920571;29;20047;-80
2023/10/30 00:09:37;;;;;;;10.90;3.47;;;8.70;99.90;;;;;;4903320;29;20189;-81
2023/10/30 00:12:03;;;;;;;10.10;3.80;;;8.70;99.90;;;;;;4898800;29;20047;-80
2023/10/30 00:14:28;;;;;;;7.28;3.03;;;8.70;99.90;;;;;;4902823;29;20040;-80
2023/10/30 00:16:55;;;;;;;13.43;3.78;;;8.70;99.90;;;;;;4901515;29;20040;-80
2023/10/30 00:19:21;;;;;;;10.32;3.65;;;8.70;99.90;;;;;;4885618;29;20037;-81
2023/10/30 00:21:46;;;;;;;9.73;4.10;;;8.60;99.90;;;;;;4914360;29;20044;-80
2023/10/30 00:24:12;;;;;;;8.18;3.50;;;8.60;99.90;;;;;;4905429;29;20127;-80
2023/10/30 00:26:38;;;;;;;8.10;3.30;;;8.60;99.90;;;;;;4901241;29;20075;-80
2023/10/30 00:29:03;;;;;;;11.77;3.90;;;8.50;99.90;;;;;;4900500;29;20068;-80
2023/10/30 00:31:29;;;;;;;10.15;3.83;;;8.50;99.90;;;;;;4918396;29;20043;-80
2023/10/30 00:33:54;;;;;;;7.78;3.25;;;8.50;99.90;;;;;;4920317;29;20044;-80
2023/10/30 00:36:20;;;;;;;7.38;3.05;;;8.50;99.90;;;;;;4905223;29;20076;-80
2023/10/30 00:38:45;;;;;;;7.53;3.38;;;8.50;99.90;;;;;;4901409;29;20037;-80
2023/10/30 00:41:11;;;;;;;14.32;4.25;;;8.50;99.90;;;;;;4915227;29;20040;-81
2023/10/30 00:43:37;;;;;;;10.13;3.83;;;8.50;99.90;;;;;;4904492;29;20047;-80
2023/10/30 00:46:04;;;;;;;10.02;3.50;;;8.50;99.90;;;;;;4902173;29;20036;-80
2023/10/30 00:48:29;;;;;;;6.93;3.20;;;8.50;99.90;;;;;;4885636;29;20084;-80
2023/10/30 00:50:55;;;;;;;8.63;3.53;;;8.50;99.90;;;;;;4906858;29;20032;-80
2023/10/30 00:53:21;;;;;;;8.23;3.10;;;8.50;99.90;;;;;;4920174;29;20044;-80
2023/10/30 00:55:52;;;;;;;6.43;3.13;;;8.50;99.90;;;;;;4904361;29;20131;-80
2023/10/30 00:58:18;;;;;;;9.88;3.88;;;8.50;99.90;;;;;;4885525;29;20057;-80
2023/10/30 01:00:44;;;;;;;11.35;3.67;;;8.50;99.90;;;;;;4911225;29;20047;-80
2023/10/30 01:03:09;;;;;;;7.22;3.65;;;8.50;99.90;;;;;;4920070;29;20115;-80
2023/10/30 01:05:35;;;;;;;10.15;4.13;;;8.50;99.90;;;;;;4890269;29;20040;-80
2023/10/30 01:08:01;;;;;;;8.68;3.20;;;8.50;99.90;;;;;;4900133;29;20036;-80
2023/10/30 01:10:26;;;;;;;12.45;3.90;;;8.60;99.90;;;;;;4897137;29;20048;-80
2023/10/30 01:12:52;;;;;;;12.48;4.68;;;8.60;99.90;;;;;;4908798;29;20448;-80
2023/10/30 01:15:18;;;;;;;11.40;3.65;;;8.60;99.90;;;;;;4882516;29;20048;-80
2023/10/30 01:17:43;;;;;;;12.75;3.60;;;8.60;99.90;;;;;;4898053;29;20044;-80
2023/10/30 01:20:09;;;;;;;10.40;3.75;;;8.70;99.90;;;;;;4899627;29;20518;-80
2023/10/30 01:22:35;;;;;;;11.68;3.58;;;8.70;99.90;;;;;;4915705;29;20066;-80
2023/10/30 01:25:01;;;;;;;10.50;3.08;;;8.70;99.90;;;;;;4915270;29;20522;-80
2023/10/30 01:27:26;;;;;;;9.75;3.95;;;8.70;99.90;;;;;;4916761;29;20134;-80
2023/10/30 01:29:53;;;;;;;9.85;2.92;;;8.70;99.90;;;;;;4913712;29;20380;-80
2023/10/30 01:32:18;;;;;;;10.55;3.67;;;8.70;99.90;;;;;;4912726;29;20063;-80
2023/10/30 01:34:44;;;;;;;10.45;3.90;;;8.70;99.90;;;;;;4897351;29;20496;-80
2023/10/30 01:37:10;;;;;;;16.85;4.35;;;8.70;99.90;;;;;;4897871;29;20488;-80
2023/10/30 01:39:37;;;;;;;13.55;3.88;;;8.70;99.90;;;;;;4899489;29;20033;-80
2023/10/30 01:42:03;;;;;;;13.73;4.25;;;8.70;99.90;;;;;;4896786;29;20167;-80
2023/10/30 01:44:28;;;;;;;9.52;3.05;;;8.70;99.90;;;;;;4897439;29;20503;-80
2023/10/30 01:46:54;;;;;;;11.20;3.45;;;8.70;99.90;;;;;;4881450;29;20052;-80
2023/10/30 01:49:20;;;;;;;13.52;3.63;;;8.60;99.90;;;;;;4881766;29;20048;-81
2023/10/30 01:51:46;;;;;;;10.75;3.33;;;8.70;99.90;;;;;;4900652;29;20047;-80
2023/10/30 01:54:12;;;;;;;10.82;3.45;;;8.70;99.90;;;;;;4916600;29;20044;-80
2023/10/30 01:56:38;;;;;;;12.90;3.30;;;8.70;99.90;;;;;;4895358;29;20036;-80
2023/10/30 01:59:05;;;;;;;12.02;3.53;;;8.60;99.90;;;;;;4897418;29;20511;-80
2023/10/30 02:01:32;;;;;;;11.63;3.72;;;8.70;99.90;;;;;;4913807;29;20044;-81
2023/10/30 02:03:58;;;;;;;15.85;4.57;;;8.70;99.90;;;;;;4916275;29;20048;-80
2023/10/30 02:06:23;;;;;;;13.95;3.65;;;8.70;99.90;;;;;;4916120;29;20052;-81
2023/10/30 02:08:49;;;;;;;14.93;3.75;;;8.60;99.90;;;;;;4905117;29;20041;-81
2023/10/30 02:11:15;;;;;;;14.98;4.03;;;8.70;99.90;;;;;;4908728;29;20587;-80
2023/10/30 02:13:40;;;;;;;13.85;3.90;;;8.60;99.90;;;;;;4910325;29;20074;-80
2023/10/30 02:16:06;;;;;;;13.88;3.55;;;8.60;99.90;;;;;;4915594;29;20139;-80
2023/10/30 02:18:31;;;;;;;16.42;4.25;;;8.60;99.90;;;;;;4916004;29;20051;-80
2023/10/30 02:20:57;;;;;;;15.30;4.05;;;8.60;99.90;;;;;;4893138;29;20451;-80
2023/10/30 02:23:22;;;;;;;12.15;3.80;;;8.60;99.90;;;;;;4888290;29;20501;-80
2023/10/30 02:25:48;;;;;;;15.82;3.83;;;8.60;99.90;;;;;;4896724;29;20037;-80
2023/10/30 02:28:14;;;;;;;16.58;4.43;;;8.60;99.90;;;;;;4897031;29;20107;-81
2023/10/30 02:30:39;;;;;;;18.55;3.88;;;8.60;99.90;;;;;;4906573;29;20051;-80
2023/10/30 02:33:05;;;;;;;16.42;3.67;;;8.60;99.90;;;;;;4900156;29;20051;-80
2023/10/30 02:35:30;;;;;;;14.27;3.38;;;8.60;99.90;;;;;;4915904;29;20039;-80
2023/10/30 02:37:56;;;;;;;14.88;3.33;;;8.70;99.90;;;;;;4909184;29;20153;-80
2023/10/30 02:40:21;;;;;;;14.27;3.53;;;8.70;99.90;;;;;;4903520;29;20495;-80
2023/10/30 02:42:47;;;;;;;12.85;3.53;;;8.70;99.90;;;;;;4906682;29;20491;-80
2023/10/30 02:45:12;;;;;;;14.07;3.63;;;8.80;99.90;;;;;;4896374;29;20044;-80
2023/10/30 02:47:38;;;;;;;19.45;3.92;;;8.80;99.90;;;;;;4896038;29;20087;-81
2023/10/30 02:50:04;;;;;;;12.57;3.33;;;8.80;99.90;;;;;;4886141;29;20036;-81
2023/10/30 02:52:30;;;;;;;11.65;3.65;;;8.80;99.90;;;;;;4915113;29;20111;-80
2023/10/30 02:54:56;;;;;;;18.88;3.78;;;8.80;99.90;;;;;;4899435;29;20036;-81
2023/10/30 02:57:21;;;;;;;13.43;3.45;;;8.80;99.90;;;;;;4899608;29;20092;-81
2023/10/30 02:59:47;;;;;;;16.17;4.03;;;8.90;99.90;;;;;;4905795;29;20548;-81
2023/10/30 03:02:13;;;;;;;14.07;3.63;;;8.80;99.90;;;;;;4885202;29;20112;-80
2023/10/30 03:04:38;;;;;;;12.48;3.00;;;8.80;99.90;;;;;;4896200;29;20123;-81
2023/10/30 03:07:04;;;;;;;13.57;4.13;;;8.80;99.90;;;;;;4880931;29;20087;-81
2023/10/30 03:09:32;;;;;;;17.15;4.38;;;8.80;99.90;;;;;;4896884;29;20051;-81
2023/10/30 03:11:58;;;;;;;12.27;3.22;;;8.90;99.90;;;;;;4909508;29;20080;-81
2023/10/30 03:14:24;;;;;;;17.83;3.60;;;8.90;99.90;;;;;;4879923;29;20078;-81
2023/10/30 03:16:50;;;;;;;14.95;3.50;;;8.90;99.90;;;;;;4895884;29;20047;-81
2023/10/30 03:19:16;;;;;;;12.73;3.38;;;8.90;99.90;;;;;;4891832;29;20037;-81
2023/10/30 03:21:42;;;;;;;17.50;3.83;;;8.90;99.90;;;;;;4898876;29;20101;-81
2023/10/30 03:24:07;;;;;;;15.23;4.20;;;8.90;99.90;;;;;;4906666;29;20051;-81
2023/10/30 03:26:33;;;;;;;16.13;3.70;;;8.90;99.90;;;;;;4888954;29;20048;-81
2023/10/30 03:28:58;;;;;;;14.00;3.63;;;8.90;99.90;;;;;;4879386;29;20044;-81
2023/10/30 03:31:24;;;;;;;10.55;3.20;;;8.90;99.90;;;;;;4893459;29;20037;-80
2023/10/30 03:33:50;;;;;;;15.15;3.55;;;8.90;99.90;;;;;;4900975;29;20037;-80
2023/10/30 03:36:20;;;;;;;18.20;3.83;;;8.90;99.90;;;;;;4872756;29;20482;-80
2023/10/30 03:38:45;;;;;;;16.33;3.30;;;8.90;99.90;;;;;;4879774;29;20044;-80
2023/10/30 03:41:11;;;;;;;16.73;3.95;;;8.90;99.90;;;;;;4879115;29;20440;-81
2023/10/30 03:43:36;;;;;;;17.50;3.92;;;8.90;99.90;;;;;;4887913;29;20044;-80
2023/10/30 03:46:02;;;;;;;14.05;3.38;;;8.90;99.90;;;;;;4895409;29;20040;-80
2023/10/30 03:48:28;;;;;;;12.93;3.42;;;8.90;99.90;;;;;;4879486;29;20398;-80
2023/10/30 03:50:53;;;;;;;11.40;3.17;;;8.90;99.90;;;;;;4891729;29;20174;-80
2023/10/30 03:53:19;;;;;;;14.52;3.45;;;8.90;99.90;;;;;;4903129;29;20062;-80
2023/10/30 03:55:44;;;;;;;12.20;3.05;;;8.90;99.90;;;;;;4914247;29;20032;-80
2023/10/30 03:58:10;;;;;;;14.07;3.58;;;9.00;99.90;;;;;;4885953;29;20059;-80
2023/10/30 04:00:35;;;;;;;19.35;3.70;;;8.90;99.90;;;;;;4875823;29;20045;-80
2023/10/30 04:03:01;;;;;;;15.55;3.92;;;8.90;99.90;;;;;;4900981;29;20044;-80
2023/10/30 04:05:26;;;;;;;13.10;3.65;;;8.90;99.90;;;;;;4895485;29;20135;-80
2023/10/30 04:07:52;;;;;;;19.20;3.97;;;8.90;99.90;;;;;;4879673;29;20048;-81
2023/10/30 04:10:17;;;;;;;15.52;3.33;;;8.90;99.90;;;;;;4894475;29;20041;-80
2023/10/30 04:12:43;;;;;;;16.25;3.35;;;8.90;99.90;;;;;;4899528;29;20444;-80
2023/10/30 04:15:09;;;;;;;12.73;3.20;;;8.90;99.90;;;;;;4901720;29;20047;-80
2023/10/30 04:17:35;;;;;;;14.95;3.45;;;8.90;99.90;;;;;;4895259;29;20100;-80
2023/10/30 04:20:00;;;;;;;13.70;3.78;;;8.90;99.90;;;;;;4879587;29;20044;-79
2023/10/30 04:22:26;;;;;;;14.52;3.67;;;8.90;99.90;;;;;;4902288;29;20123;-80
2023/10/30 04:24:52;;;;;;;16.35;3.42;;;8.90;99.90;;;;;;4880957;29;20293;-80
2023/10/30 04:27:17;;;;;;;16.15;3.28;;;8.90;99.90;;;;;;4895032;29;20036;-80
2023/10/30 04:29:43;;;;;;;15.73;3.80;;;8.90;99.90;;;;;;4875793;29;20044;-80
2023/10/30 04:32:09;;;;;;;16.92;4.13;;;8.90;99.90;;;;;;4882712;29;20078;-81
2023/10/30 04:34:34;;;;;;;17.70;3.67;;;8.90;99.90;;;;;;4892182;29;20072;-80
2023/10/30 04:37:00;;;;;;;14.43;3.70;;;8.80;99.90;;;;;;4895406;29;20032;-80
2023/10/30 04:39:26;;;;;;;17.13;4.25;;;8.80;99.90;;;;;;4914238;29;20123;-80
2023/10/30 04:41:53;;;;;;;15.35;3.40;;;8.80;99.90;;;;;;4909109;29;20029;-80
2023/10/30 04:44:19;;;;;;;13.30;3.33;;;8.80;99.90;;;;;;4910620;29;20099;-80
2023/10/30 04:46:44;;;;;;;14.30;3.70;;;8.80;99.90;;;;;;4910267;29;20040;-80
2023/10/30 04:49:10;;;;;;;14.73;3.60;;;8.70;99.90;;;;;;4900007;29;20439;-80
2023/10/30 04:51:36;;;;;;;16.92;3.67;;;8.70;99.90;;;;;;4898971;29;20550;-80
2023/10/30 04:54:01;;;;;;;16.58;3.53;;;8.70;99.90;;;;;;4912126;29;20078;-81
2023/10/30 04:56:28;;;;;;;15.57;3.58;;;8.70;99.90;;;;;;4901570;29;20047;-81
2023/10/30 04:58:53;;;;;;;15.23;3.97;;;8.70;99.90;;;;;;4907339;29;20092;-80
2023/10/30 05:01:19;;;;;;;17.52;3.70;;;8.70;99.90;;;;;;4913997;29;20411;-81
2023/10/30 05:03:44;;;;;;;19.63;4.05;;;8.60;99.90;;;;;;4908528;29;20039;-80
2023/10/30 05:06:10;;;;;;;16.75;4.10;;;8.60;99.90;;;;;;4917158;29;20075;-81
2023/10/30 05:08:39;;;;;;;16.55;3.45;;;8.60;99.90;;;;;;4895431;29;20036;-80
2023/10/30 05:11:05;;;;;;;15.43;3.70;;;8.60;99.90;;;;;;4898218;29;20037;-80
2023/10/30 05:13:31;;;;;;;21.55;4.25;;;8.60;99.90;;;;;;4881968;29;20036;-80
2023/10/30 05:15:57;;;;;;;17.75;4.00;;;8.60;99.90;;;;;;4882523;29;20063;-80
2023/10/30 05:18:24;;;;;;;18.60;4.00;;;8.60;99.90;;;;;;4882273;29;20131;-80
2023/10/30 05:20:50;;;;;;;15.27;3.92;;;8.60;99.90;;;;;;4898453;29;20590;-79
2023/10/30 05:23:16;;;;;;;14.07;3.65;;;8.50;99.90;;;;;;4898002;29;20040;-80
2023/10/30 05:25:42;;;;;;;15.57;3.40;;;8.50;99.90;;;;;;4882378;29;20036;-80
2023/10/30 05:28:09;;;;;;;16.13;3.53;;;8.60;99.90;;;;;;4881847;29;20048;-80
2023/10/30 05:30:35;;;;;;;16.73;4.00;;;8.60;99.90;;;;;;4889656;29;20040;-80
2023/10/30 05:33:01;;;;;;;16.38;3.95;;;8.60;99.90;;;;;;4893028;29;20044;-79
2023/10/30 05:35:26;;;;;;;18.17;3.80;;;8.50;99.90;;;;;;4881632;29;20063;-80
2023/10/30 05:37:52;;;;;;;16.48;3.92;;;8.50;99.90;;;;;;4880595;29;20044;-79
2023/10/30 05:40:17;;;;;;;21.45;4.43;;;8.50;99.90;;;;;;4897997;29;20127;-79
2023/10/30 05:42:43;;;;;;;16.27;3.78;;;8.60;99.90;;;;;;4897342;29;20100;-79
2023/10/30 05:45:09;;;;;;;19.23;4.28;;;8.60;99.90;;;;;;4897797;29;20033;-80
2023/10/30 05:47:34;;;;;;;16.70;3.80;;;8.60;99.90;;;;;;4898022;29;20048;-79
2023/10/30 05:50:00;;;;;;;16.38;3.60;;;8.60;99.90;;;;;;4881530;29;20040;-79
2023/10/30 05:52:25;;;;;;;20.33;3.88;;;8.60;99.90;;;;;;4897153;29;20083;-80
2023/10/30 05:54:51;;;;;;;19.52;4.13;;;8.60;99.90;;;;;;4897319;29;20052;-80
2023/10/30 05:57:17;;;;;;;13.70;3.35;;;8.60;99.90;;;;;;4897134;29;20086;-80
2023/10/30 05:59:42;;;;;;;18.17;3.80;;;8.60;99.90;;;;;;4883361;29;20554;-79
2023/10/30 06:02:08;;;;;;;12.13;3.17;;;8.60;99.90;;;;;;4896789;29;20040;-79
2023/10/30 06:04:33;;;;;;;19.60;4.45;;;8.70;99.90;;;;;;4889681;29;20040;-79
2023/10/30 06:06:59;;;;;;;19.17;3.88;;;8.70;99.90;;;;;;4891590;29;20123;-80
2023/10/30 06:09:26;;;;;;;18.42;3.97;;;8.70;99.90;;;;;;4908547;29;20128;-79
2023/10/30 06:11:52;;;;;;;20.13;3.92;;;8.70;99.90;;;;;;4885052;29;20134;-80
2023/10/30 06:14:18;;;;;;;19.90;4.72;;;8.70;99.90;;;;;;4891020;29;20131;-80
2023/10/30 06:16:45;;;;;;;18.40;3.72;;;8.70;99.90;;;;;;4880345;29;20048;-81
2023/10/30 06:19:10;;;;;;;19.13;4.20;;;8.70;99.90;;;;;;4879738;29;20080;-81
2023/10/30 06:21:40;;;;;;;20.38;4.68;;;8.70;99.90;;;;;;4900074;29;20036;-81
2023/10/30 06:24:07;;;;;;;13.55;4.13;;;8.70;99.90;;;;;;4896047;29;20035;-80
2023/10/30 06:26:32;;;;;;;19.95;4.32;;;8.70;99.90;;;;;;4898890;29;20427;-81
2023/10/30 06:28:58;;;;;;;17.27;4.03;;;8.80;99.90;;;;;;4911617;29;20131;-80
2023/10/30 06:31:23;;;;;;;15.43;3.80;;;8.80;99.90;;;;;;4894801;29;20105;-80
2023/10/30 06:33:49;;;;;;;19.38;4.78;;;8.80;99.90;;;;;;4895302;29;20519;-80
2023/10/30 06:36:14;;;;;;;20.20;4.55;;;8.80;99.90;;;;;;4907388;29;20040;-79
2023/10/30 06:38:40;;;;;;;18.60;4.18;;;8.80;99.90;;;;;;4915601;29;20188;-80
2023/10/30 06:41:06;;;;;;;13.82;3.80;;;8.80;99.90;;;;;;4901511;29;20628;-80
2023/10/30 06:43:32;;;;;;;18.33;4.28;;;8.90;99.90;;;;;;4896879;29;20075;-80
2023/10/30 06:46:05;;;;;;;15.93;4.38;;;8.90;99.90;;;;;;4894972;29;20044;-80
2023/10/30 06:48:31;;;;;;;19.10;4.18;;;8.90;99.90;;;;;;4896632;29;20128;-81
2023/10/30 06:50:57;;;;;;;12.82;3.63;;;8.90;99.90;;;;;;4896754;29;20044;-81
2023/10/30 06:53:24;;;;;;;18.65;4.00;;;8.90;99.90;;;;;;4881226;29;20043;-80
2023/10/30 06:55:50;;;;;;;12.57;4.18;;;9.00;99.90;;;;;;4896493;29;20033;-80
2023/10/30 06:58:21;;;;;;;23.20;4.88;;;9.00;99.90;;;;;;4895826;29;20072;-81
2023/10/30 07:00:47;;;;;;;18.83;4.43;;;9.00;99.90;;;;;;4868866;29;20037;-81
2023/10/30 07:03:13;;;;;;;21.00;4.30;;;9.10;99.90;;;;;;4896533;29;20087;-81
2023/10/30 07:05:38;;;;;;;16.90;4.30;;;9.10;99.90;;;;;;4904642;29;20048;-81
2023/10/30 07:08:04;;;;;;;16.67;4.30;;;9.10;99.90;;;;;;4915099;29;20559;-79
2023/10/30 07:10:30;;;;;;;17.65;4.35;;;9.10;99.90;;;;;;4880246;29;20460;-78
2023/10/30 07:12:56;;;;;;;17.70;4.53;;;9.10;99.90;;;;;;4880934;29;20043;-79
2023/10/30 07:15:21;;;;;;;16.15;4.25;;;9.10;99.90;;;;;;4900432;29;20036;-84
2023/10/30 07:17:47;;;;;;;14.70;3.83;;;9.20;99.90;;;;;;4903447;29;20068;-81
2023/10/30 07:20:14;;;;;;;15.27;3.92;;;9.20;99.90;;;;;;4895603;29;20107;-81
2023/10/30 07:22:40;;;;;;;15.15;4.18;;;9.20;99.90;;;;;;4915130;29;20040;-84
2023/10/30 07:25:06;;;;;;;14.85;3.83;;;9.20;99.90;;;;;;4899042;29;20040;-81
2023/10/30 07:27:33;;;;;;;20.88;4.55;;;9.30;99.90;;;;;;4899175;29;20044;-83
2023/10/30 07:29:59;;;;;;;14.38;4.15;;;9.30;99.90;;;;;;4899362;29;20099;-80
2023/10/30 07:32:25;;;;;;;14.50;4.30;;;9.30;99.90;;;;;;4914951;29;20504;-81
2023/10/30 07:34:50;;;;;;;20.45;3.97;;;9.30;99.90;;;;;;4899211;29;20423;-81
2023/10/30 07:37:16;;;;;;;16.60;4.07;;;9.30;99.90;;;;;;4899211;29;20091;-81
2023/10/30 07:39:41;;;;;;;17.27;4.40;;;9.40;99.90;;;;;;4914634;29;20123;-81
2023/10/30 07:42:07;;;;;;;13.05;3.88;;;9.40;99.90;;;;;;4914660;29;20040;-81
2023/10/30 07:44:33;;;;;;;17.60;3.70;;;9.40;99.90;;;;;;4915006;29;20040;-81
2023/10/30 07:46:58;;;;;;;15.48;4.68;;;9.40;99.90;;;;;;4914594;29;20131;-82
2023/10/30 07:49:24;;;;;;;18.10;4.22;;;9.50;99.90;;;;;;4914665;29;20099;-81
2023/10/30 07:51:49;;;;;;;18.98;4.20;;;9.50;99.90;;;;;;4899072;29;20099;-80
2023/10/30 07:54:15;;;;;;;17.60;4.43;;;9.60;99.90;;;;;;4914730;29;20383;-82
2023/10/30 07:56:40;;;;;;;18.48;4.38;;;9.60;99.90;;;;;;4914534;29;20044;-82
2023/10/30 07:59:06;;;;;;;20.95;4.50;;;9.60;99.90;;;;;;4898949;29;20040;-81
2023/10/30 08:01:35;;;;;;;18.17;4.38;;;9.70;99.90;;;;;;4898885;29;20040;-81
2023/10/30 08:04:01;;;;;;;13.18;3.70;;;9.70;99.90;;;;;;4898831;29;20040;-81
2023/10/30 08:06:27;;;;;;;15.52;4.20;;;9.80;99.90;;;;;;4914430;29;20395;-82
2023/10/30 08:08:53;;;;;;;14.48;4.47;;;9.80;99.90;;;;;;4898651;29;20044;-82
2023/10/30 08:11:19;;;;;;;16.40;4.50;;;9.90;99.90;;;;;;4898764;29;20040;-83
2023/10/30 08:13:45;;;;;;;13.65;3.42;;;9.90;99.90;;;;;;4899125;29;20135;-81
2023/10/30 08:16:11;;;;;;;14.32;3.85;;;9.90;99.90;;;;;;4914256;29;20491;-81
2023/10/30 08:18:37;;;;;;;18.40;4.25;;;10.00;99.90;;;;;;4914539;29;20409;-81
2023/10/30 08:21:04;;;;;;;17.33;4.35;;;10.00;99.90;;;;;;4899039;29;20083;-83
2023/10/30 08:23:30;;;;;;;17.58;4.60;;;10.10;99.90;;;;;;4918259;29;20503;-82
2023/10/30 08:25:56;;;;;;;14.75;3.88;;;10.10;99.90;;;;;;4918126;29;20087;-81
2023/10/30 08:28:21;;;;;;;14.05;4.47;;;10.10;99.90;;;;;;4918338;29;20095;-83
2023/10/30 08:30:47;;;;;;;15.75;4.25;;;10.20;99.90;;;;;;4902299;29;20063;-81
2023/10/30 08:33:12;;;;;;;17.05;4.40;;;10.20;99.90;;;;;;4918141;29;20135;-81
2023/10/30 08:35:38;;;;;;;17.10;4.22;;;10.30;99.90;;;;;;4918109;29;20092;-81
2023/10/30 08:38:04;;;;;;;15.82;4.10;;;10.30;99.90;;;;;;4917804;29;20040;-82
2023/10/30 08:40:30;;;;;;;18.48;4.43;;;10.40;99.90;;;;;;4918071;29;20620;-80
2023/10/30 08:42:55;;;;;;;15.70;4.18;;;10.40;99.90;;;;;;4918402;29;20052;-80
2023/10/30 08:45:22;;;;;;;14.75;3.92;;;10.40;99.90;;;;;;4901994;29;20047;-81
2023/10/30 08:47:48;;;;;;;14.73;3.88;;;10.50;99.90;;;;;;4918042;29;20048;-81
2023/10/30 08:50:14;;;;;;;15.80;3.70;;;10.60;99.90;;;;;;4902165;29;20055;-81
2023/10/30 08:52:40;;;;;;;14.52;3.83;;;10.70;99.90;;;;;;4917623;29;20122;-81
2023/10/30 08:55:06;;;;;;;15.15;4.05;;;10.70;99.90;;;;;;4917795;29;20154;-82
2023/10/30 08:57:32;;;;;;;13.98;3.45;;;10.80;99.90;;;;;;4917823;29;20443;-81
2023/10/30 08:59:58;;;;;;;15.05;4.53;;;10.90;99.90;;;;;;4917715;29;20036;-81
2023/10/30 09:02:23;;;;;;;15.30;4.25;;;10.90;99.90;;;;;;4901984;29;20044;-81
2023/10/30 09:04:49;;;;;;;15.15;3.80;;;10.90;99.90;;;;;;4901722;29;20469;-80
2023/10/30 09:07:16;;;;;;;14.93;3.92;;;11.10;99.90;;;;;;4917402;29;20042;-83
2023/10/30 09:09:41;;;;;;;11.90;3.22;;;11.10;99.90;;;;;;4917525;29;20051;-81
2023/10/30 09:12:07;;;;;;;15.40;3.90;;;11.10;99.90;;;;;;4917466;29;20091;-81
2023/10/30 09:14:33;;;;;;;13.38;3.90;;;11.20;99.90;;;;;;4917364;29;20044;-81
2023/10/30 09:16:59;;;;;;;15.98;4.53;;;11.20;99.90;;;;;;4917431;29;20395;-82
2023/10/30 09:19:24;;;;;;;12.60;3.55;;;11.30;99.90;;;;;;4901577;29;20040;-81
2023/10/30 09:21:50;;;;;;;12.55;3.45;;;11.40;99.90;;;;;;4917253;29;20487;-81
2023/10/30 09:24:16;;;;;;;14.25;3.97;;;11.50;99.90;;;;;;4901389;29;20155;-81
2023/10/30 09:26:41;;;;;;;10.85;3.63;;;11.50;99.90;;;;;;4901698;29;20048;-81
2023/10/30 09:29:07;;;;;;;16.65;3.90;;;11.60;99.90;;;;;;4901259;29;20048;-83
2023/10/30 09:31:33;;;;;;;11.35;4.00;;;11.70;99.90;;;;;;4936065;23;20502;-77
2023/10/30 09:33:59;;;;;;;12.77;3.65;;;11.90;99.90;;;;;;4915940;29;20040;-77
2023/10/30 09:36:25;;;;;;;14.48;3.88;;;12.10;99.90;;;;;;4916393;29;20183;-77
2023/10/30 09:38:51;;;;;;;13.80;3.30;;;12.30;99.90;;;;;;4916813;29;20135;-77
2023/10/30 09:41:18;;;;;;;13.80;3.35;;;12.20;99.90;;;;;;4916650;29;20494;-77
2023/10/30 09:43:48;;;;;;;10.13;3.17;;;12.10;99.90;;;;;;4932522;29;20076;-77
2023/10/30 09:46:14;;;;;;;16.23;3.90;;;12.10;99.90;;;;;;4916420;29;20047;-77
2023/10/30 09:48:43;;;;;;;11.25;3.30;;;12.00;99.90;;;;;;4932490;29;20043;-77
2023/10/30 09:51:08;;;;;;;16.15;3.97;;;12.00;99.90;;;;;;4916635;29;20051;-77
2023/10/30 09:53:36;;;;;;;13.63;3.40;;;12.00;99.90;;;;;;4932337;29;20044;-77
2023/10/30 09:56:03;;;;;;;13.00;3.00;;;11.90;99.90;;;;;;4916500;29;20044;-77
2023/10/30 09:58:30;;;;;;;12.82;3.25;;;11.90;99.90;;;;;;4932143;29;20044;-77
2023/10/30 10:00:57;;;;;;;13.05;3.50;;;11.90;99.90;;;;;;4932358;29;20406;-77
2023/10/30 10:03:23;;;;;;;15.68;3.70;;;11.90;99.90;;;;;;4932113;29;20050;-77
2023/10/30 10:05:56;;;;;;;12.35;2.90;;;11.80;99.90;;;;;;4916201;29;20039;-77
2023/10/30 10:08:22;;;;;;;14.77;3.70;;;11.90;99.90;;;;;;4932271;29;20055;-77
2023/10/30 10:10:57;;;;;;;13.45;3.60;;;12.10;99.90;;;;;;4932117;29;20059;-77
2023/10/30 10:13:24;;;;;;;13.98;3.80;;;12.50;99.90;;;;;;4916408;29;20155;-77
2023/10/30 10:15:51;;;;;;;11.00;2.83;;;12.90;99.90;;;;;;4931718;29;20537;-77
2023/10/30 10:18:28;;;;;;;10.05;3.17;;;13.40;99.90;;;;;;4915880;29;20048;-77
2023/10/30 10:20:55;;;;;;;12.95;3.53;;;13.50;99.90;;;;;;4900642;29;20043;-77
2023/10/30 10:23:21;;;;;;;13.80;3.38;;;13.40;99.90;;;;;;4915960;29;20210;-77
2023/10/30 10:25:55;;;;;;;15.77;3.55;;;13.30;99.90;;;;;;4915701;29;20142;-77
2023/10/30 10:28:24;;;;;;;9.95;3.15;;;13.20;99.90;;;;;;4932033;29;20039;-77
2023/10/30 10:30:52;;;;;;;13.38;3.60;;;13.30;99.90;;;;;;4915667;29;20048;-77
2023/10/30 10:33:27;;;;;;;14.00;3.30;;;13.40;99.90;;;;;;4931533;29;20080;-77
2023/10/30 10:36:01;;;;;;;11.63;3.85;;;13.60;99.90;;;;;;4915583;29;20550;-77
2023/10/30 10:38:28;;;;;;;13.88;3.47;;;13.70;99.90;;;;;;4915799;29;20522;-77
2023/10/30 10:40:57;;;;;;;12.60;3.35;;;13.70;99.90;;;;;;4899865;29;20051;-77
2023/10/30 10:43:30;;;;;;;12.70;3.20;;;13.70;99.90;;;;;;4931743;29;20040;-77
2023/10/30 10:45:57;;;;;;;12.50;3.13;;;13.60;99.90;;;;;;4915616;29;20044;-77
2023/10/30 10:48:27;;;;;;;14.23;3.22;;;13.50;99.90;;;;;;4931550;29;20372;-77
2023/10/30 10:50:55;;;;;;;10.95;3.20;;;13.50;99.90;;;;;;4931097;29;20048;-77
2023/10/30 10:53:21;;;;;;;13.68;3.20;;;13.30;99.90;;;;;;4915342;29;20044;-77
2023/10/30 10:55:48;;;;;;;10.85;3.22;;;13.30;99.90;;;;;;4915139;29;20094;-77
2023/10/30 10:58:20;;;;;;;13.73;3.28;;;13.30;99.90;;;;;;4915254;29;20048;-77
2023/10/30 11:00:50;;;;;;;13.88;4.00;;;13.40;99.90;;;;;;4931074;29;20083;-77
2023/10/30 11:03:16;;;;;;;19.52;3.78;;;13.40;99.90;;;;;;4931091;29;20099;-77
2023/10/30 11:05:44;;;;;;;15.38;3.67;;;13.50;99.90;;;;;;4930707;29;20040;-77
2023/10/30 11:08:32;;;;;;;12.00;3.10;;;13.50;99.90;;;;;;4930813;29;20088;-77
2023/10/30 11:11:11;;;;;;;11.27;2.95;;;13.60;99.90;;;;;;4931112;29;20083;-77
2023/10/30 11:13:44;;;;;;;10.63;2.95;;;13.70;99.90;;;;;;4931085;29;20052;-77
2023/10/30 11:16:48;;;;;;;14.27;3.08;;;13.70;99.90;;;;;;4914752;29;20044;-77
2023/10/30 11:19:20;;;;;;;15.05;3.47;;;13.60;99.90;;;;;;4910819;29;20060;-77
2023/10/30 11:21:48;;;;;;;10.73;3.03;;;13.50;99.90;;;;;;4930971;29;20086;-77
2023/10/30 11:24:37;;;;;;;14.02;3.80;;;13.50;99.90;;;;;;4914932;29;20043;-77
2023/10/30 11:27:25;;;;;;;12.80;3.53;;;13.50;99.90;;;;;;4899388;29;20406;-77
2023/10/30 11:30:11;;;;;;;12.27;3.30;;;13.40;99.90;;;;;;4915045;29;20048;-77
2023/10/30 11:32:46;;;;;;;14.48;3.50;;;13.40;99.90;;;;;;4930553;29;20128;-77
2023/10/30 11:35:11;;;;;;;12.48;3.40;;;13.40;99.90;;;;;;4914338;29;20044;-77
2023/10/30 11:37:39;;;;;;;11.40;3.00;;;13.60;99.90;;;;;;4914541;29;20074;-77
2023/10/30 11:40:07;;;;;;;14.70;3.50;;;13.60;99.90;;;;;;4930598;29;20396;-77
2023/10/30 11:42:39;;;;;;;13.45;3.35;;;13.60;99.90;;;;;;4930430;29;20091;-77
2023/10/30 11:45:21;;;;;;;11.75;3.20;;;13.70;99.90;;;;;;4930219;29;20043;-77
2023/10/30 11:48:07;;;;;;;13.70;2.85;;;13.80;99.90;;;;;;4914728;29;20043;-76
2023/10/30 11:50:35;;;;;;;15.52;3.92;;;13.70;99.90;;;;;;4913949;29;20063;-77
2023/10/30 11:53:12;;;;;;;12.02;3.58;;;13.80;99.90;;;;;;4914532;29;20211;-77
2023/10/30 11:55:41;;;;;;;13.77;3.10;;;13.80;99.90;;;;;;4914228;29;20091;-77
2023/10/30 11:58:11;;;;;;;12.07;3.28;;;13.80;99.90;;;;;;4930001;29;20530;-77
2023/10/30 12:00:53;;;;;;;11.57;3.33;;;13.80;99.90;;;;;;4930163;29;20399;-77
2023/10/30 12:03:18;;;;;;;12.85;3.13;;;13.90;99.90;;;;;;4930214;29;20036;-77
2023/10/30 12:05:44;;;;;;;15.50;3.50;;;13.90;99.90;;;;;;4929900;29;20044;-77
2023/10/30 12:08:11;;;;;;;14.20;2.80;;;13.90;99.90;;;;;;4930182;29;20048;-77
2023/10/30 12:10:39;;;;;;;11.10;3.17;;;14.00;99.90;;;;;;4930015;29;20040;-77
2023/10/30 12:13:05;;;;;;;10.10;2.70;;;14.00;99.90;;;;;;4930086;29;20051;-77
2023/10/30 12:15:31;;;;;;;11.40;3.10;;;13.90;99.90;;;;;;4914165;29;20403;-77
2023/10/30 12:17:57;;;;;;;9.68;2.92;;;13.90;99.90;;;;;;4914013;29;20047;-76
2023/10/30 12:20:22;;;;;;;13.80;3.53;;;13.90;99.90;;;;;;4930148;29;20099;-77
2023/10/30 12:22:48;;;;;;;11.63;3.05;;;13.90;99.90;;;;;;4929939;29;20534;-77
2023/10/30 12:25:17;;;;;;;16.67;3.58;;;13.90;99.90;;;;;;4913964;29;20123;-77
2023/10/30 12:27:44;;;;;;;16.60;3.88;;;14.00;99.90;;;;;;4930130;29;20172;-77
2023/10/30 12:30:18;;;;;;;12.35;3.78;;;14.00;99.90;;;;;;4913935;29;20044;-77
2023/10/30 12:32:54;;;;;;;12.70;2.92;;;13.90;99.90;;;;;;4914183;29;20052;-77
2023/10/30 12:35:20;;;;;;;12.95;3.17;;;13.90;99.90;;;;;;4929587;29;20044;-77
2023/10/30 12:37:45;;;;;;;13.10;3.35;;;13.90;99.90;;;;;;4929696;29;20071;-77
2023/10/30 12:40:12;;;;;;;12.55;3.58;;;13.90;99.90;;;;;;4929767;29;20044;-76
2023/10/30 12:42:48;;;;;;;13.73;3.42;;;13.80;99.90;;;;;;4914303;29;20380;-78